Arnold, Missouri
Current Conditions -  °F | °C
As of 5:53 PM on Thursday 18 Dec 2014 (Local Time) from KCPS Reporting Station
Overcast Overcast  
Wind Chill: 35°   Ceiling: 1900
Heat Index: 35°   Visibility: 8mi
Dew Point: 30°   Wind: 0mph
Humidity: 82%   Direction: NA
Pressure: 30.25"   Gusts: NA
Location:  38.42°N, 90.37°W
Report Text: KCPS 182353Z 00000KT 8SM OVC019 02/M01 A3025 RMK AO2 SLP248 60000 T00171011 10022 20011 53007
Loading
Personal Weather Stations






























Interactive Weather Map New forecast layout! Learn more

10-Day Weather Forecast

Advertisements
Track Severe Weather on mobile